Doris Moran — WRU2125 — position and weather

sailwx.info

Track history (hours):
 
Tides and Currents Weather Stations Pressure Air Temp Water Temp Dewpoint Dewpoint Depression Visibility Wind Speed Wind Dir Waves Ship Positions

Doris Moran

Owner: MORAN TOWING CORPORATION, New Canaan, CT. More information available from US FCC via Universal Licensing System and Coast Guard Vessel Documentation Center.

Last reported at 2015-Mar-01 05:31 UTC. Time now 2015-Mar-01 06:59 UTC.
Position N 40°38' W 074°08'.

Length 36 m; draft 5.3 m.

Type: Other ship. MMSI: 366939790.

Date/timePositionNaut miles runAvg speedWind from/ knotsBaromVisibWave heightAir tempDewpointWater temp
2015-Mar-01 05:31N 40°38' W 074°08'0 0.0
2015-Feb-28 23:27N 40°38' W 074°08'0 0.0
2015-Feb-28 22:14N 40°38' W 074°08'0 0.2
2015-Feb-28 19:28N 40°39' W 074°07'1 0.2
2015-Feb-28 16:28N 40°39' W 074°07'1 1.0
2015-Feb-28 15:25N 40°38' W 074°08'0 0.0
2015-Feb-28 14:32N 40°38' W 074°08'0 0.0
2015-Feb-28 13:33N 40°38' W 074°08'0 0.0
2015-Feb-28 12:30N 40°38' W 074°08'0 0.0
2015-Feb-28 11:30N 40°38' W 074°08'0 0.0
2015-Feb-28 10:31N 40°38' W 074°08'0 0.0
2015-Feb-28 09:33N 40°38' W 074°08'0 0.0
2015-Feb-28 08:33N 40°38' W 074°08'0 0.0
2015-Feb-28 07:33N 40°38' W 074°08'0 0.0
2015-Feb-28 06:33N 40°38' W 074°08'0 0.0
2015-Feb-28 05:33N 40°38' W 074°08'0 0.0
2015-Feb-28 04:33N 40°38' W 074°08'0 0.0
2015-Feb-28 03:24N 40°38' W 074°08'0 0.0
2015-Feb-28 02:33N 40°38' W 074°08'0 0.0
2015-Feb-28 01:33N 40°38' W 074°08'0 0.0
2015-Feb-28 00:33N 40°38' W 074°08'0 0.0
2015-Feb-27 23:33N 40°38' W 074°08'0 0.0
2015-Feb-27 22:33N 40°38' W 074°08'0 0.0
2015-Feb-27 21:33N 40°38' W 074°08'0 0.0
2015-Feb-27 20:33N 40°38' W 074°08'0 0.0
2015-Feb-27 19:33N 40°38' W 074°08'0 0.0
2015-Feb-27 17:25N 40°38' W 074°08'0 0.0
2015-Feb-27 16:32N 40°38' W 074°08'0 0.0
2015-Feb-27 14:27N 40°38' W 074°08'0 0.0
2015-Feb-27 13:33N 40°38' W 074°08'1 0.6
2015-Feb-27 12:33N 40°39' W 074°07'9 9.1
2015-Feb-27 11:33N 40°46' W 074°00'0 0.2
2015-Feb-27 10:33N 40°46' W 073°60'0 0.1
2015-Feb-27 09:33N 40°46' W 074°00'0 0.0
2015-Feb-27 08:33N 40°46' W 074°00'0 0.0
2015-Feb-27 07:33N 40°46' W 074°00'0 0.0
2015-Feb-27 06:33N 40°46' W 074°00'0 0.0
2015-Feb-27 05:33N 40°46' W 074°00'0 0.1
2015-Feb-27 04:33N 40°46' W 074°00'6 5.8
2015-Feb-27 03:33N 40°41' W 074°03'4 3.6
2015-Feb-27 02:18N 40°38' W 074°08'2 1.8
2015-Feb-27 01:26N 40°39' W 074°06'2 0.2
2015-Feb-26 19:04N 40°38' W 074°08'1 2.0
2015-Feb-26 18:25N 40°40' W 074°09'1 0.9
2015-Feb-26 17:27N 40°40' W 074°08'0 0.0
2015-Feb-26 16:31N 40°40' W 074°08'2 0.6
2015-Feb-26 13:32N 40°39' W 074°08'2 2.0
2015-Feb-26 12:32N 40°41' W 074°08'3 2.9
2015-Feb-26 11:33N 40°39' W 074°05'1 1.2
2015-Feb-26 10:32N 40°40' W 074°03'1 1.3
2015-Feb-26 09:28N 40°40' W 074°05'3 2.2
2015-Feb-26 08:10N 40°38' W 074°08'0 0.0
2015-Feb-26 07:18N 40°38' W 074°08'0 0.0
2015-Feb-26 05:05N 40°38' W 074°08'1 2.7
2015-Feb-26 04:33N 40°40' W 074°09'2 1.4
2015-Feb-26 03:22N 40°39' W 074°07'0 0.0
2015-Feb-25 22:28N 40°39' W 074°07'3 2.2
2015-Feb-25 21:06N 40°42' W 074°08'3 0.4
2015-Feb-25 13:17N 40°39' W 074°08'1 1.8
2015-Feb-25 12:33N 40°40' W 074°09'1 0.6
2015-Feb-25 10:27N 40°41' W 074°09'2 1.8
2015-Feb-25 09:28N 40°39' W 074°09'4 4.8
2015-Feb-25 08:34N 40°38' W 074°03'3 0.4
2015-Feb-25 00:15N 40°38' W 074°08'2 3.2
2015-Feb-24 23:33N 40°41' W 074°09'2 2.1
2015-Feb-24 22:33N 40°38' W 074°09'1 0.7
2015-Feb-24 21:30N 40°38' W 074°08'0 0.0
2015-Feb-24 20:30N 40°38' W 074°08'0 0.0
2015-Feb-24 19:28N 40°38' W 074°08'0 0.0
2015-Feb-24 18:30N 40°38' W 074°08'0 0.0
2015-Feb-24 17:33N 40°38' W 074°08'0 0.0
2015-Feb-24 16:31N 40°38' W 074°08'0 0.0
2015-Feb-24 14:07N 40°38' W 074°08'0 0.0
2015-Feb-24 13:22N 40°38' W 074°08'0 0.0
2015-Feb-24 12:33N 40°38' W 074°08'2 1.9
2015-Feb-24 11:33N 40°40' W 074°08'2 1.6
2015-Feb-24 10:23N 40°39' W 074°07'5 5.9
2015-Feb-24 09:34N 40°41' W 074°01'1 0.7
2015-Feb-24 08:34N 40°41' W 074°01'6 5.7
2015-Feb-24 07:33N 40°41' W 074°08'1 0.8
2015-Feb-24 06:33N 40°41' W 074°08'2 2.3
2015-Feb-24 05:33N 40°39' W 074°09'4 4.4
2015-Feb-24 04:33N 40°38' W 074°03'2 1.5
2015-Feb-24 03:33N 40°39' W 074°05'2 1.1
2015-Feb-24 01:30N 40°38' W 074°08'0 0.0
2015-Feb-24 00:33N 40°38' W 074°08'2 2.4
2015-Feb-23 23:34N 40°41' W 074°09'2 2.1
2015-Feb-23 22:27N 40°39' W 074°07'0 0.5
2015-Feb-23 21:33N 40°38' W 074°08'0 0.0
2015-Feb-23 20:33N 40°38' W 074°08'0 0.0
2015-Feb-23 19:33N 40°38' W 074°08'0 0.0
2015-Feb-23 18:33N 40°38' W 074°08'0 0.0
2015-Feb-23 17:33N 40°38' W 074°08'1 1.0
2015-Feb-23 16:33N 40°39' W 074°07'1 0.8
2015-Feb-23 15:26N 40°38' W 074°08'0 0.0
2015-Feb-23 13:26N 40°38' W 074°08'0 0.0
2015-Feb-23 12:30N 40°38' W 074°08'0 0.0
2015-Feb-23 11:31N 40°38' W 074°08'3 3.6
2015-Feb-23 10:33N 40°42' W 074°09'3 3.3
2015-Feb-23 09:33N 40°39' W 074°08'4 3.5
2015-Feb-23 08:33N 40°39' W 074°03'1 0.9
2015-Feb-23 07:34N 40°40' W 074°04'1 0.7
2015-Feb-23 06:33N 40°40' W 074°05'2 1.6
2015-Feb-23 05:33N 40°39' W 074°03'2 2.4
2015-Feb-23 04:33N 40°39' W 074°06'3 3.3
2015-Feb-23 03:33N 40°41' W 074°09'1 0.6
2015-Feb-23 02:33N 40°41' W 074°09'2 2.4
2015-Feb-23 01:34N 40°39' W 074°07'3 3.2
2015-Feb-23 00:33N 40°38' W 074°03'4 1.2
2015-Feb-22 21:31N 40°38' W 074°08'0 0.0
2015-Feb-22 19:25N 40°38' W 074°08'0 0.0
2015-Feb-22 18:21N 40°38' W 074°08'0 0.0
2015-Feb-22 17:33N 40°38' W 074°08'0 0.0
2015-Feb-22 16:33N 40°38' W 074°08'0 0.0
2015-Feb-22 15:33N 40°38' W 074°08'0 0.0
2015-Feb-22 14:33N 40°38' W 074°08'0 0.0
2015-Feb-22 13:33N 40°38' W 074°08'10 9.5
2015-Feb-22 12:33N 40°46' W 074°00'0 0.1
2015-Feb-22 11:33N 40°46' W 073°60'0 0.0
2015-Feb-22 10:34N 40°46' W 074°00'0 0.3
2015-Feb-22 09:33N 40°46' W 074°00'8 8.4
2015-Feb-22 08:32N 40°39' W 074°07'1 0.9
2015-Feb-22 07:31N 40°38' W 074°08'0 0.0
2015-Feb-22 06:32N 40°38' W 074°08'0 0.0
2015-Feb-22 05:33N 40°38' W 074°08'0 0.0
2015-Feb-22 04:22N 40°38' W 074°08'0 0.0
2015-Feb-22 03:33N 40°38' W 074°08'0 0.0
2015-Feb-22 02:28N 40°38' W 074°08'0 0.0
2015-Feb-22 01:31N 40°38' W 074°08'0 0.0
2015-Feb-22 00:32N 40°38' W 074°08'1 1.2
2015-Feb-21 23:33N 40°39' W 074°09'0 0.3
2015-Feb-21 22:33N 40°40' W 074°09'1 1.3
2015-Feb-21 21:33N 40°38' W 074°08'0 0.0
2015-Feb-21 20:33N 40°38' W 074°08'0 0.0
2015-Feb-21 19:34N 40°38' W 074°08'0 0.0
2015-Feb-21 18:33N 40°38' W 074°08'0 0.0
2015-Feb-21 17:33N 40°38' W 074°08'0 0.0
2015-Feb-21 16:33N 40°38' W 074°08'0 0.0
2015-Feb-21 15:33N 40°38' W 074°08'2 1.9
2015-Feb-21 14:33N 40°39' W 074°05'0 0.4
2015-Feb-21 13:33N 40°39' W 074°06'3 2.9
2015-Feb-21 12:33N 40°41' W 074°09'2 2.4
2015-Feb-21 11:33N 40°39' W 074°07'1 0.5
2015-Feb-21 10:29N 40°38' W 074°08'0 0.0
2015-Feb-21 09:23N 40°38' W 074°08'0 0.0
2015-Feb-21 08:30N 40°38' W 074°08'0 0.0
2015-Feb-21 07:34N 40°38' W 074°08'0 0.0
2015-Feb-21 06:28N 40°38' W 074°08'0 0.0
2015-Feb-21 05:33N 40°38' W 074°08'0 0.0
2015-Feb-21 04:33N 40°38' W 074°08'0 0.0
2015-Feb-21 00:31N 40°38' W 074°08'1 0.5
2015-Feb-20 23:33N 40°39' W 074°07'3 2.3
2015-Feb-20 22:22N 40°41' W 074°08'3 0.9
2015-Feb-20 19:17N 40°38' W 074°08'0 0.0
2015-Feb-20 17:05N 40°38' W 074°08'0 0.0
2015-Feb-20 16:19N 40°38' W 074°08'0 0.0
2015-Feb-20 15:33N 40°38' W 074°08'0 0.0
2015-Feb-20 09:31N 40°38' W 074°08'1 1.0
2015-Feb-20 08:33N 40°39' W 074°09'0 0.4
2015-Feb-20 07:33N 40°39' W 074°09'1 1.0
2015-Feb-20 06:30N 40°38' W 074°08'0 0.0
2015-Feb-20 05:14N 40°38' W 074°08'2 2.8
2015-Feb-20 04:33N 40°39' W 074°05'4 4.1
2015-Feb-20 03:33N 40°40' W 074°00'0 0.0
2015-Feb-20 02:33N 40°40' W 074°00'0 0.0
2015-Feb-20 01:33N 40°40' W 074°00'0 0.0
2015-Feb-20 00:33N 40°40' W 074°00'0 0.0
2015-Feb-19 23:33N 40°40' W 074°00'0 0.0
2015-Feb-19 22:33N 40°40' W 074°00'0 0.0
2015-Feb-19 21:33N 40°40' W 074°00'0 0.0
2015-Feb-19 20:33N 40°40' W 074°00'0 0.0
2015-Feb-19 19:33N 40°40' W 074°00'0 0.0
2015-Feb-19 18:33N 40°40' W 074°00'0 0.0
2015-Feb-19 17:33N 40°40' W 074°00'0 0.0
2015-Feb-19 16:34N 40°40' W 074°00'6 2.8
2015-Feb-19 14:27N 40°38' W 074°08'0 0.0
2015-Feb-19 11:27N 40°38' W 074°08'0 0.0
2015-Feb-19 10:27N 40°38' W 074°08'4 1.1
2015-Feb-19 07:06N 40°37' W 074°12'4 6.9
2015-Feb-19 06:33N 40°38' W 074°08'0 0.0
2015-Feb-19 05:33N 40°38' W 074°08'  
Track history (hours):
 
Tides and Currents Weather Stations Pressure Air Temp Water Temp Dewpoint Dewpoint Depression Visibility Wind Speed Wind Dir Waves Ship Positions

Doris Moran

Owner: MORAN TOWING CORPORATION, New Canaan, CT. More information available from US FCC via Universal Licensing System and Coast Guard Vessel Documentation Center.

Last reported at 2015-Mar-01 05:31 UTC. Time now 2015-Mar-01 06:59 UTC.
Position N 40°38' W 074°08'.

Length 36 m; draft 5.3 m.

Type: Other ship. MMSI: 366939790.

Date/timePositionNaut miles runAvg speedWind from/ knotsBaromVisibWave heightAir tempDewpointWater temp
2015-Mar-01 05:31N 40°38' W 074°08'0 0.0
2015-Feb-28 23:27N 40°38' W 074°08'0 0.0
2015-Feb-28 22:14N 40°38' W 074°08'0 0.2
2015-Feb-28 19:28N 40°39' W 074°07'1 0.2
2015-Feb-28 16:28N 40°39' W 074°07'1 1.0
2015-Feb-28 15:25N 40°38' W 074°08'0 0.0
2015-Feb-28 14:32N 40°38' W 074°08'0 0.0
2015-Feb-28 13:33N 40°38' W 074°08'0 0.0
2015-Feb-28 12:30N 40°38' W 074°08'0 0.0
2015-Feb-28 11:30N 40°38' W 074°08'0 0.0
2015-Feb-28 10:31N 40°38' W 074°08'0 0.0
2015-Feb-28 09:33N 40°38' W 074°08'0 0.0
2015-Feb-28 08:33N 40°38' W 074°08'0 0.0
2015-Feb-28 07:33N 40°38' W 074°08'0 0.0
2015-Feb-28 06:33N 40°38' W 074°08'0 0.0
2015-Feb-28 05:33N 40°38' W 074°08'0 0.0
2015-Feb-28 04:33N 40°38' W 074°08'0 0.0
2015-Feb-28 03:24N 40°38' W 074°08'0 0.0
2015-Feb-28 02:33N 40°38' W 074°08'0 0.0
2015-Feb-28 01:33N 40°38' W 074°08'0 0.0
2015-Feb-28 00:33N 40°38' W 074°08'0 0.0
2015-Feb-27 23:33N 40°38' W 074°08'0 0.0
2015-Feb-27 22:33N 40°38' W 074°08'0 0.0
2015-Feb-27 21:33N 40°38' W 074°08'0 0.0
2015-Feb-27 20:33N 40°38' W 074°08'0 0.0
2015-Feb-27 19:33N 40°38' W 074°08'0 0.0
2015-Feb-27 17:25N 40°38' W 074°08'0 0.0
2015-Feb-27 16:32N 40°38' W 074°08'0 0.0
2015-Feb-27 14:27N 40°38' W 074°08'0 0.0
2015-Feb-27 13:33N 40°38' W 074°08'1 0.6
2015-Feb-27 12:33N 40°39' W 074°07'9 9.1
2015-Feb-27 11:33N 40°46' W 074°00'0 0.2
2015-Feb-27 10:33N 40°46' W 073°60'0 0.1
2015-Feb-27 09:33N 40°46' W 074°00'0 0.0
2015-Feb-27 08:33N 40°46' W 074°00'0 0.0
2015-Feb-27 07:33N 40°46' W 074°00'0 0.0
2015-Feb-27 06:33N 40°46' W 074°00'0 0.0
2015-Feb-27 05:33N 40°46' W 074°00'0 0.1
2015-Feb-27 04:33N 40°46' W 074°00'6 5.8
2015-Feb-27 03:33N 40°41' W 074°03'4 3.6
2015-Feb-27 02:18N 40°38' W 074°08'2 1.8
2015-Feb-27 01:26N 40°39' W 074°06'2 0.2
2015-Feb-26 19:04N 40°38' W 074°08'1 2.0
2015-Feb-26 18:25N 40°40' W 074°09'1 0.9
2015-Feb-26 17:27N 40°40' W 074°08'0 0.0
2015-Feb-26 16:31N 40°40' W 074°08'2 0.6
2015-Feb-26 13:32N 40°39' W 074°08'2 2.0
2015-Feb-26 12:32N 40°41' W 074°08'3 2.9
2015-Feb-26 11:33N 40°39' W 074°05'1 1.2
2015-Feb-26 10:32N 40°40' W 074°03'1 1.3
2015-Feb-26 09:28N 40°40' W 074°05'3 2.2
2015-Feb-26 08:10N 40°38' W 074°08'0 0.0
2015-Feb-26 07:18N 40°38' W 074°08'0 0.0
2015-Feb-26 05:05N 40°38' W 074°08'1 2.7
2015-Feb-26 04:33N 40°40' W 074°09'2 1.4
2015-Feb-26 03:22N 40°39' W 074°07'0 0.0
2015-Feb-25 22:28N 40°39' W 074°07'3 2.2
2015-Feb-25 21:06N 40°42' W 074°08'3 0.4
2015-Feb-25 13:17N 40°39' W 074°08'1 1.8
2015-Feb-25 12:33N 40°40' W 074°09'1 0.6
2015-Feb-25 10:27N 40°41' W 074°09'2 1.8
2015-Feb-25 09:28N 40°39' W 074°09'4 4.8
2015-Feb-25 08:34N 40°38' W 074°03'3 0.4
2015-Feb-25 00:15N 40°38' W 074°08'2 3.2
2015-Feb-24 23:33N 40°41' W 074°09'2 2.1
2015-Feb-24 22:33N 40°38' W 074°09'1 0.7
2015-Feb-24 21:30N 40°38' W 074°08'0 0.0
2015-Feb-24 20:30N 40°38' W 074°08'0 0.0
2015-Feb-24 19:28N 40°38' W 074°08'0 0.0
2015-Feb-24 18:30N 40°38' W 074°08'0 0.0
2015-Feb-24 17:33N 40°38' W 074°08'0 0.0
2015-Feb-24 16:31N 40°38' W 074°08'0 0.0
2015-Feb-24 14:07N 40°38' W 074°08'0 0.0
2015-Feb-24 13:22N 40°38' W 074°08'0 0.0
2015-Feb-24 12:33N 40°38' W 074°08'2 1.9
2015-Feb-24 11:33N 40°40' W 074°08'2 1.6
2015-Feb-24 10:23N 40°39' W 074°07'5 5.9
2015-Feb-24 09:34N 40°41' W 074°01'1 0.7
2015-Feb-24 08:34N 40°41' W 074°01'6 5.7
2015-Feb-24 07:33N 40°41' W 074°08'1 0.8
2015-Feb-24 06:33N 40°41' W 074°08'2 2.3
2015-Feb-24 05:33N 40°39' W 074°09'4 4.4
2015-Feb-24 04:33N 40°38' W 074°03'2 1.5
2015-Feb-24 03:33N 40°39' W 074°05'2 1.1
2015-Feb-24 01:30N 40°38' W 074°08'0 0.0
2015-Feb-24 00:33N 40°38' W 074°08'2 2.4
2015-Feb-23 23:34N 40°41' W 074°09'2 2.1
2015-Feb-23 22:27N 40°39' W 074°07'0 0.5
2015-Feb-23 21:33N 40°38' W 074°08'0 0.0
2015-Feb-23 20:33N 40°38' W 074°08'0 0.0
2015-Feb-23 19:33N 40°38' W 074°08'0 0.0
2015-Feb-23 18:33N 40°38' W 074°08'0 0.0
2015-Feb-23 17:33N 40°38' W 074°08'1 1.0
2015-Feb-23 16:33N 40°39' W 074°07'1 0.8
2015-Feb-23 15:26N 40°38' W 074°08'0 0.0
2015-Feb-23 13:26N 40°38' W 074°08'0 0.0
2015-Feb-23 12:30N 40°38' W 074°08'0 0.0
2015-Feb-23 11:31N 40°38' W 074°08'3 3.6
2015-Feb-23 10:33N 40°42' W 074°09'3 3.3
2015-Feb-23 09:33N 40°39' W 074°08'4 3.5
2015-Feb-23 08:33N 40°39' W 074°03'1 0.9
2015-Feb-23 07:34N 40°40' W 074°04'1 0.7
2015-Feb-23 06:33N 40°40' W 074°05'2 1.6
2015-Feb-23 05:33N 40°39' W 074°03'2 2.4
2015-Feb-23 04:33N 40°39' W 074°06'3 3.3
2015-Feb-23 03:33N 40°41' W 074°09'1 0.6
2015-Feb-23 02:33N 40°41' W 074°09'2 2.4
2015-Feb-23 01:34N 40°39' W 074°07'3 3.2
2015-Feb-23 00:33N 40°38' W 074°03'4 1.2
2015-Feb-22 21:31N 40°38' W 074°08'0 0.0
2015-Feb-22 19:25N 40°38' W 074°08'0 0.0
2015-Feb-22 18:21N 40°38' W 074°08'0 0.0
2015-Feb-22 17:33N 40°38' W 074°08'0 0.0
2015-Feb-22 16:33N 40°38' W 074°08'0 0.0
2015-Feb-22 15:33N 40°38' W 074°08'0 0.0
2015-Feb-22 14:33N 40°38' W 074°08'0 0.0
2015-Feb-22 13:33N 40°38' W 074°08'10 9.5
2015-Feb-22 12:33N 40°46' W 074°00'0 0.1
2015-Feb-22 11:33N 40°46' W 073°60'0 0.0
2015-Feb-22 10:34N 40°46' W 074°00'0 0.3
2015-Feb-22 09:33N 40°46' W 074°00'8 8.4
2015-Feb-22 08:32N 40°39' W 074°07'1 0.9
2015-Feb-22 07:31N 40°38' W 074°08'0 0.0
2015-Feb-22 06:32N 40°38' W 074°08'0 0.0
2015-Feb-22 05:33N 40°38' W 074°08'0 0.0
2015-Feb-22 04:22N 40°38' W 074°08'0 0.0
2015-Feb-22 03:33N 40°38' W 074°08'0 0.0
2015-Feb-22 02:28N 40°38' W 074°08'0 0.0
2015-Feb-22 01:31N 40°38' W 074°08'0 0.0
2015-Feb-22 00:32N 40°38' W 074°08'1 1.2
2015-Feb-21 23:33N 40°39' W 074°09'0 0.3
2015-Feb-21 22:33N 40°40' W 074°09'1 1.3
2015-Feb-21 21:33N 40°38' W 074°08'0 0.0
2015-Feb-21 20:33N 40°38' W 074°08'0 0.0
2015-Feb-21 19:34N 40°38' W 074°08'0 0.0
2015-Feb-21 18:33N 40°38' W 074°08'0 0.0
2015-Feb-21 17:33N 40°38' W 074°08'0 0.0
2015-Feb-21 16:33N 40°38' W 074°08'0 0.0
2015-Feb-21 15:33N 40°38' W 074°08'2 1.9
2015-Feb-21 14:33N 40°39' W 074°05'0 0.4
2015-Feb-21 13:33N 40°39' W 074°06'3 2.9
2015-Feb-21 12:33N 40°41' W 074°09'2 2.4
2015-Feb-21 11:33N 40°39' W 074°07'1 0.5
2015-Feb-21 10:29N 40°38' W 074°08'0 0.0
2015-Feb-21 09:23N 40°38' W 074°08'0 0.0
2015-Feb-21 08:30N 40°38' W 074°08'0 0.0
2015-Feb-21 07:34N 40°38' W 074°08'0 0.0
2015-Feb-21 06:28N 40°38' W 074°08'0 0.0
2015-Feb-21 05:33N 40°38' W 074°08'0 0.0
2015-Feb-21 04:33N 40°38' W 074°08'0 0.0
2015-Feb-21 00:31N 40°38' W 074°08'1 0.5
2015-Feb-20 23:33N 40°39' W 074°07'3 2.3
2015-Feb-20 22:22N 40°41' W 074°08'3 0.9
2015-Feb-20 19:17N 40°38' W 074°08'0 0.0
2015-Feb-20 17:05N 40°38' W 074°08'0 0.0
2015-Feb-20 16:19N 40°38' W 074°08'0 0.0
2015-Feb-20 15:33N 40°38' W 074°08'0 0.0
2015-Feb-20 09:31N 40°38' W 074°08'1 1.0
2015-Feb-20 08:33N 40°39' W 074°09'0 0.4
2015-Feb-20 07:33N 40°39' W 074°09'1 1.0
2015-Feb-20 06:30N 40°38' W 074°08'0 0.0
2015-Feb-20 05:14N 40°38' W 074°08'2 2.8
2015-Feb-20 04:33N 40°39' W 074°05'4 4.1
2015-Feb-20 03:33N 40°40' W 074°00'0 0.0
2015-Feb-20 02:33N 40°40' W 074°00'0 0.0
2015-Feb-20 01:33N 40°40' W 074°00'0 0.0
2015-Feb-20 00:33N 40°40' W 074°00'0 0.0
2015-Feb-19 23:33N 40°40' W 074°00'0 0.0
2015-Feb-19 22:33N 40°40' W 074°00'0 0.0
2015-Feb-19 21:33N 40°40' W 074°00'0 0.0
2015-Feb-19 20:33N 40°40' W 074°00'0 0.0
2015-Feb-19 19:33N 40°40' W 074°00'0 0.0
2015-Feb-19 18:33N 40°40' W 074°00'0 0.0
2015-Feb-19 17:33N 40°40' W 074°00'0 0.0
2015-Feb-19 16:34N 40°40' W 074°00'6 2.8
2015-Feb-19 14:27N 40°38' W 074°08'0 0.0
2015-Feb-19 11:27N 40°38' W 074°08'0 0.0
2015-Feb-19 10:27N 40°38' W 074°08'4 1.1
2015-Feb-19 07:06N 40°37' W 074°12'4 6.9
2015-Feb-19 06:33N 40°38' W 074°08'0 0.0
2015-Feb-19 05:33N 40°38' W 074°08'  

Dump ship's entire track history